createdAt,value
2023-02-11T00:01:21.573Z,13.43
2023-02-11T00:03:49.522Z,11.90
2023-02-11T00:06:18.002Z,14.23
2023-02-11T00:08:45.901Z,13.15
2023-02-11T00:11:14.720Z,15.68
2023-02-11T00:13:42.759Z,15.82
2023-02-11T00:16:14.401Z,15.27
2023-02-11T00:18:42.336Z,13.20
2023-02-11T00:21:10.718Z,12.25
2023-02-11T00:23:39.000Z,16.10
2023-02-11T00:26:13.125Z,13.15
2023-02-11T00:28:41.146Z,13.68
2023-02-11T00:31:09.163Z,10.85
2023-02-11T00:33:38.806Z,16.95
2023-02-11T00:36:07.747Z,11.95
2023-02-11T00:38:35.623Z,14.00
2023-02-11T00:41:03.714Z,13.95
2023-02-11T00:43:31.679Z,11.98
2023-02-11T00:45:59.576Z,12.52
2023-02-11T00:48:27.483Z,9.90
2023-02-11T00:50:56.736Z,15.05
2023-02-11T00:53:24.638Z,15.18
2023-02-11T00:55:52.760Z,12.38
2023-02-11T00:58:23.120Z,10.18
2023-02-11T01:00:51.004Z,12.05
2023-02-11T01:03:18.916Z,12.25
2023-02-11T01:05:46.998Z,12.98
2023-02-11T01:08:16.337Z,14.98
2023-02-11T01:10:44.945Z,13.52
2023-02-11T01:13:13.069Z,18.38
2023-02-11T01:15:40.943Z,12.73
2023-02-11T01:18:08.903Z,13.80
2023-02-11T01:20:36.792Z,8.73
2023-02-11T01:23:04.685Z,12.32
2023-02-11T01:25:33.956Z,14.77
2023-02-11T01:28:01.960Z,14.80
2023-02-11T01:30:29.845Z,11.93
2023-02-11T01:32:57.920Z,16.67
2023-02-11T01:35:25.804Z,15.75
2023-02-11T01:37:53.705Z,15.27
2023-02-11T01:40:21.573Z,17.15
2023-02-11T01:42:51.211Z,12.18
2023-02-11T01:45:55.565Z,12.43
2023-02-11T01:48:25.875Z,15.02
2023-02-11T01:50:56.543Z,16.67
2023-02-11T01:53:41.891Z,11.52
2023-02-11T01:56:27.656Z,19.02
2023-02-11T01:59:01.962Z,16.80
2023-02-11T02:01:30.457Z,13.13
2023-02-11T02:04:01.185Z,14.70
2023-02-11T02:06:33.522Z,11.60
2023-02-11T02:09:05.169Z,12.05
2023-02-11T02:11:33.060Z,10.50
2023-02-11T02:14:02.408Z,12.95
2023-02-11T02:16:33.649Z,16.75
2023-02-11T02:19:22.747Z,13.10
2023-02-11T02:22:14.326Z,10.45
2023-02-11T02:24:57.833Z,12.40
2023-02-11T02:27:33.515Z,14.13
2023-02-11T02:30:43.097Z,12.65
2023-02-11T02:33:24.093Z,12.30
2023-02-11T02:36:02.135Z,11.55
2023-02-11T02:38:32.953Z,12.73
2023-02-11T02:41:04.649Z,10.27
2023-02-11T02:43:32.632Z,11.90
2023-02-11T02:46:12.174Z,12.20
2023-02-11T02:48:41.438Z,9.98
2023-02-11T02:51:31.183Z,13.60
2023-02-11T02:54:05.832Z,9.57
2023-02-11T02:56:37.652Z,11.23
2023-02-11T02:59:16.148Z,11.88
2023-02-11T03:01:51.840Z,8.70
2023-02-11T03:04:27.078Z,16.23
2023-02-11T03:06:59.089Z,11.60
2023-02-11T03:09:30.594Z,15.80
2023-02-11T03:11:58.529Z,10.15
2023-02-11T03:14:28.166Z,11.45
2023-02-11T03:16:59.312Z,8.35
2023-02-11T03:19:30.354Z,14.27
2023-02-11T03:21:58.941Z,15.40
2023-02-11T03:24:31.202Z,12.63
2023-02-11T03:27:01.756Z,14.85
2023-02-11T03:29:36.077Z,10.95
2023-02-11T03:32:09.452Z,9.93
2023-02-11T03:34:43.953Z,12.82
2023-02-11T03:37:15.554Z,15.05
2023-02-11T03:39:47.776Z,14.15
2023-02-11T03:42:16.283Z,14.30
2023-02-11T03:44:47.526Z,11.90
2023-02-11T03:47:16.883Z,11.00
2023-02-11T03:49:46.871Z,13.93
2023-02-11T03:52:16.265Z,13.05
2023-02-11T03:54:45.220Z,15.23
2023-02-11T03:57:13.177Z,13.55
2023-02-11T03:59:55.148Z,12.55
2023-02-11T04:02:24.029Z,13.10
2023-02-11T04:04:53.279Z,10.82
2023-02-11T04:07:21.205Z,17.35
2023-02-11T04:09:49.134Z,11.70
2023-02-11T04:12:17.020Z,14.40
2023-02-11T04:14:44.893Z,18.77
2023-02-11T04:17:12.942Z,13.50
2023-02-11T04:19:40.775Z,11.23
2023-02-11T04:22:10.014Z,12.60
2023-02-11T04:24:38.056Z,13.25
2023-02-11T04:27:05.963Z,14.57
2023-02-11T04:29:33.899Z,11.82
2023-02-11T04:32:01.850Z,15.15
2023-02-11T04:34:29.755Z,11.80
2023-02-11T04:36:57.662Z,9.77
2023-02-11T04:39:26.831Z,11.45
2023-02-11T04:41:54.885Z,14.90
2023-02-11T04:44:22.771Z,14.73
2023-02-11T04:46:50.711Z,12.10
2023-02-11T04:49:19.057Z,11.75
2023-02-11T04:51:49.295Z,15.82
2023-02-11T04:54:17.686Z,10.73
2023-02-11T04:56:47.250Z,14.45
2023-02-11T04:59:15.284Z,12.50
2023-02-11T05:01:43.199Z,15.00
2023-02-11T05:04:11.079Z,13.43
2023-02-11T05:06:40.357Z,20.27
2023-02-11T05:09:08.261Z,13.38
2023-02-11T05:11:36.675Z,18.95
2023-02-11T05:14:06.450Z,18.60
2023-02-11T05:16:34.972Z,15.80
2023-02-11T05:19:02.895Z,18.85
2023-02-11T05:21:30.789Z,16.63
2023-02-11T05:23:58.801Z,17.65
2023-02-11T05:26:26.779Z,14.77
2023-02-11T05:28:54.644Z,17.60
2023-02-11T05:31:24.085Z,16.42
2023-02-11T05:33:52.007Z,14.02
2023-02-11T05:36:19.863Z,17.35
2023-02-11T05:38:47.752Z,17.95
2023-02-11T05:41:15.655Z,16.90
2023-02-11T05:43:43.629Z,20.92
2023-02-11T05:46:11.556Z,14.80
2023-02-11T05:48:40.861Z,18.33
2023-02-11T05:51:08.763Z,17.20
2023-02-11T05:53:36.676Z,16.40
2023-02-11T05:56:04.849Z,15.38
2023-02-11T05:58:33.551Z,17.60
2023-02-11T06:01:01.460Z,24.00
2023-02-11T06:03:29.386Z,19.40
2023-02-11T06:05:58.764Z,17.15
2023-02-11T06:08:26.652Z,16.42
2023-02-11T06:10:54.683Z,17.85
2023-02-11T06:13:22.541Z,19.10
2023-02-11T06:15:57.424Z,20.40
2023-02-11T06:18:25.422Z,18.30
2023-02-11T06:20:53.570Z,19.42
2023-02-11T06:23:23.271Z,16.92
2023-02-11T06:25:51.628Z,21.15
2023-02-11T06:28:19.824Z,20.38
2023-02-11T06:30:47.829Z,20.98
2023-02-11T06:33:15.774Z,18.50
2023-02-11T06:35:43.688Z,21.38
2023-02-11T06:38:11.557Z,18.40
2023-02-11T06:40:41.155Z,21.80
2023-02-11T06:43:09.045Z,22.40
2023-02-11T06:45:36.944Z,19.33
2023-02-11T06:48:05.049Z,20.08
2023-02-11T06:50:32.976Z,16.83
2023-02-11T06:53:00.934Z,18.13
2023-02-11T06:55:29.037Z,18.75
2023-02-11T06:57:58.329Z,18.70
2023-02-11T07:00:26.643Z,25.00
2023-02-11T07:02:54.573Z,19.25
2023-02-11T07:05:22.721Z,25.30
2023-02-11T07:07:50.675Z,21.60
2023-02-11T07:10:18.946Z,19.33
2023-02-11T07:12:46.887Z,25.63
2023-02-11T07:15:16.223Z,22.50
2023-02-11T07:17:44.100Z,24.35
2023-02-11T07:20:14.719Z,21.77
2023-02-11T07:22:42.592Z,21.13
2023-02-11T07:25:10.430Z,27.98
2023-02-11T07:27:38.258Z,19.75
2023-02-11T07:30:07.456Z,28.98
2023-02-11T07:32:36.907Z,25.70
2023-02-11T07:35:05.323Z,23.58
2023-02-11T07:37:34.843Z,25.05
2023-02-11T07:40:05.472Z,22.98
2023-02-11T07:42:33.371Z,27.88
2023-02-11T07:45:02.423Z,29.63
2023-02-11T07:47:30.345Z,26.30
2023-02-11T07:49:59.751Z,21.85
2023-02-11T07:52:30.679Z,28.20
2023-02-11T07:54:58.745Z,26.00
2023-02-11T07:57:26.696Z,25.58
2023-02-11T07:59:54.890Z,29.92
2023-02-11T08:02:22.887Z,24.00
2023-02-11T08:04:50.918Z,34.20
2023-02-11T08:07:20.603Z,26.60
2023-02-11T08:09:48.541Z,28.98
2023-02-11T08:12:16.493Z,27.52
2023-02-11T08:14:44.500Z,29.65
2023-02-11T08:17:12.498Z,33.88
2023-02-11T08:19:40.829Z,32.25
2023-02-11T08:22:08.756Z,26.85
2023-02-11T08:24:38.002Z,27.60
2023-02-11T08:27:05.870Z,30.58
2023-02-11T08:29:33.918Z,30.10
2023-02-11T08:32:01.910Z,33.95
2023-02-11T08:34:29.891Z,28.63
2023-02-11T08:36:57.885Z,30.52
2023-02-11T08:39:25.976Z,32.38
2023-02-11T08:41:56.731Z,34.97
2023-02-11T08:44:25.625Z,33.08
2023-02-11T08:46:54.087Z,35.22
2023-02-11T08:49:22.456Z,31.95
2023-02-11T08:51:51.490Z,30.25
2023-02-11T08:54:19.460Z,35.35
2023-02-11T08:56:47.537Z,32.90
2023-02-11T08:59:17.897Z,36.95
2023-02-11T09:01:47.198Z,33.60
2023-02-11T09:04:15.377Z,35.42
2023-02-11T09:06:43.403Z,39.78
2023-02-11T09:09:13.476Z,32.58
2023-02-11T09:11:42.310Z,32.50
2023-02-11T09:14:19.130Z,40.40
2023-02-11T09:16:47.222Z,31.25
2023-02-11T09:19:15.150Z,38.40
2023-02-11T09:21:43.049Z,41.30
2023-02-11T09:24:11.048Z,42.42
2023-02-11T09:26:39.720Z,33.95
2023-02-11T09:29:07.711Z,38.72
2023-02-11T09:31:37.138Z,37.42
2023-02-11T09:34:06.398Z,37.38
2023-02-11T09:36:37.288Z,37.60
2023-02-11T09:39:07.133Z,39.58
2023-02-11T09:41:43.341Z,37.03
2023-02-11T09:44:19.503Z,41.05
2023-02-11T09:46:54.828Z,43.70
2023-02-11T09:49:26.519Z,41.78
2023-02-11T09:51:58.994Z,33.83
2023-02-11T09:54:29.623Z,37.53
2023-02-11T09:56:57.781Z,34.28
2023-02-11T09:59:25.744Z,39.55
2023-02-11T10:01:59.434Z,38.92
2023-02-11T10:04:41.629Z,41.47
2023-02-11T10:07:19.784Z,38.95
2023-02-11T10:10:00.751Z,40.35
2023-02-11T10:12:41.524Z,37.80
2023-02-11T10:15:23.008Z,38.65
2023-02-11T10:18:03.273Z,33.10
2023-02-11T10:20:34.547Z,39.42
2023-02-11T10:23:06.773Z,35.78
2023-02-11T10:25:37.152Z,40.40
2023-02-11T10:28:13.113Z,37.67
2023-02-11T10:30:44.418Z,35.97
2023-02-11T10:33:20.036Z,34.25
2023-02-11T10:35:48.275Z,41.20
2023-02-11T10:38:16.324Z,34.50
2023-02-11T10:40:44.247Z,38.38
2023-02-11T10:43:14.776Z,35.15
2023-02-11T10:45:44.848Z,36.63
2023-02-11T10:48:39.603Z,36.03
2023-02-11T10:51:18.281Z,41.33
2023-02-11T10:53:46.962Z,41.38
2023-02-11T10:56:22.599Z,37.17
2023-02-11T10:58:57.362Z,39.15
2023-02-11T11:01:38.907Z,39.38
2023-02-11T11:04:37.512Z,39.50
2023-02-11T11:07:14.821Z,42.10
2023-02-11T11:09:49.195Z,40.83
2023-02-11T11:12:30.153Z,42.72
2023-02-11T11:14:59.449Z,40.95
2023-02-11T11:17:29.146Z,39.10
2023-02-11T11:20:17.459Z,42.40
2023-02-11T11:22:46.217Z,40.53
2023-02-11T11:25:32.261Z,40.10
2023-02-11T11:28:01.836Z,43.35
2023-02-11T11:30:34.634Z,39.92
2023-02-11T11:33:03.144Z,39.85
2023-02-11T11:35:34.058Z,38.22
2023-02-11T11:38:03.730Z,36.92
2023-02-11T11:40:32.555Z,40.95
2023-02-11T11:43:07.647Z,36.67
2023-02-11T11:45:35.656Z,37.42
2023-02-11T11:48:07.211Z,37.25
2023-02-11T11:50:39.026Z,36.17
2023-02-11T11:53:11.082Z,38.47
2023-02-11T11:55:42.862Z,37.60
2023-02-11T11:58:15.716Z,36.70
2023-02-11T12:00:53.356Z,36.70
2023-02-11T12:04:01.543Z,41.17
2023-02-11T12:06:41.180Z,42.95
2023-02-11T12:09:17.706Z,45.25
2023-02-11T12:11:58.894Z,45.40
2023-02-11T12:14:35.047Z,40.88
2023-02-11T12:17:06.297Z,45.22
2023-02-11T12:19:52.371Z,43.22
2023-02-11T12:22:32.428Z,37.78
2023-02-11T12:25:20.543Z,49.83
2023-02-11T12:27:53.284Z,40.42
2023-02-11T12:30:39.828Z,43.28
2023-02-11T12:33:12.829Z,42.58
2023-02-11T12:35:48.521Z,41.53
2023-02-11T12:38:25.804Z,43.53
2023-02-11T12:41:03.596Z,40.47
2023-02-11T12:43:36.262Z,41.22
2023-02-11T12:46:20.971Z,48.35
2023-02-11T12:49:24.432Z,38.03
2023-02-11T12:52:11.014Z,39.60
2023-02-11T12:54:44.860Z,37.72
2023-02-11T12:57:18.836Z,41.05
2023-02-11T12:59:55.371Z,40.22
2023-02-11T13:02:29.616Z,40.42
2023-02-11T13:05:00.469Z,36.80
2023-02-11T13:07:32.744Z,35.50
2023-02-11T13:10:07.638Z,39.72
2023-02-11T13:12:54.055Z,41.47
2023-02-11T13:15:22.082Z,36.03
2023-02-11T13:17:56.472Z,39.08
2023-02-11T13:20:34.180Z,41.20
2023-02-11T13:23:11.324Z,40.80
2023-02-11T13:25:44.512Z,41.13
2023-02-11T13:28:22.073Z,36.33
2023-02-11T13:30:57.792Z,36.92
2023-02-11T13:33:33.916Z,36.88
2023-02-11T13:36:27.884Z,36.67
2023-02-11T13:39:01.368Z,38.38
2023-02-11T13:41:34.088Z,34.53
2023-02-11T13:44:23.252Z,37.75
2023-02-11T13:46:54.346Z,38.00
2023-02-11T13:49:24.876Z,38.75
2023-02-11T13:51:53.476Z,37.72
2023-02-11T13:54:25.338Z,32.63
2023-02-11T13:57:23.921Z,37.03
2023-02-11T13:59:53.008Z,34.58
2023-02-11T14:02:48.680Z,39.20
2023-02-11T14:05:48.093Z,35.03
2023-02-11T14:08:39.722Z,37.08
2023-02-11T14:11:27.418Z,33.50
2023-02-11T14:14:13.092Z,36.22
2023-02-11T14:17:21.563Z,36.45
2023-02-11T14:19:50.494Z,38.03
2023-02-11T14:22:21.387Z,36.20
2023-02-11T14:24:52.741Z,38.05
2023-02-11T14:27:25.453Z,39.97
2023-02-11T14:30:12.456Z,37.20
2023-02-11T14:32:48.205Z,37.58
2023-02-11T14:35:23.460Z,34.72
2023-02-11T14:37:56.969Z,37.85
2023-02-11T14:40:29.263Z,34.90
2023-02-11T14:42:58.204Z,37.55
2023-02-11T14:45:29.361Z,36.50
2023-02-11T14:48:02.765Z,35.40
2023-02-11T14:50:35.305Z,35.75
2023-02-11T14:53:06.224Z,38.30
2023-02-11T14:55:37.077Z,36.10
2023-02-11T14:58:23.267Z,40.15
2023-02-11T15:00:55.583Z,37.10
2023-02-11T15:03:28.247Z,36.67
2023-02-11T15:05:58.154Z,36.80
2023-02-11T15:08:26.075Z,37.45
2023-02-11T15:10:55.062Z,36.70
2023-02-11T15:13:27.048Z,34.83
2023-02-11T15:15:59.863Z,35.08
2023-02-11T15:18:34.712Z,38.38
2023-02-11T15:21:02.657Z,38.15
2023-02-11T15:23:31.294Z,35.08
2023-02-11T15:26:03.223Z,36.30
2023-02-11T15:28:32.653Z,36.45
2023-02-11T15:31:04.117Z,37.58
2023-02-11T15:33:33.144Z,39.00
2023-02-11T15:36:01.704Z,36.67
2023-02-11T15:38:30.432Z,42.97
2023-02-11T15:41:00.803Z,34.92
2023-02-11T15:43:42.462Z,36.30
2023-02-11T15:46:15.673Z,39.53
2023-02-11T15:48:44.866Z,41.97
2023-02-11T15:51:19.132Z,39.38
2023-02-11T15:53:49.484Z,40.17
2023-02-11T15:56:21.671Z,39.22
2023-02-11T15:58:50.625Z,40.10
2023-02-11T16:01:20.059Z,37.88
2023-02-11T16:03:51.647Z,42.38
2023-02-11T16:06:21.895Z,41.97
2023-02-11T16:09:00.700Z,41.70
2023-02-11T16:11:31.522Z,41.45
2023-02-11T16:14:05.162Z,43.10
2023-02-11T16:16:36.292Z,38.22
2023-02-11T16:19:06.267Z,39.10
2023-02-11T16:21:38.933Z,43.60
2023-02-11T16:24:08.412Z,43.00
2023-02-11T16:26:41.011Z,40.38
2023-02-11T16:29:13.105Z,40.58
2023-02-11T16:31:44.207Z,41.45
2023-02-11T16:34:17.580Z,42.78
2023-02-11T16:36:45.754Z,42.58
2023-02-11T16:39:14.346Z,40.50
2023-02-11T16:41:42.255Z,41.38
2023-02-11T16:44:10.257Z,42.53
2023-02-11T16:46:38.723Z,44.22
2023-02-11T16:49:12.218Z,42.13
2023-02-11T16:51:41.734Z,48.75
2023-02-11T16:54:13.934Z,45.60
2023-02-11T16:56:41.901Z,43.35
2023-02-11T16:59:09.851Z,45.88
2023-02-11T17:01:39.257Z,46.47
2023-02-11T17:04:07.813Z,48.30
2023-02-11T17:06:37.191Z,42.30
2023-02-11T17:09:06.752Z,48.00
2023-02-11T17:11:34.657Z,46.72
2023-02-11T17:14:02.477Z,48.65
2023-02-11T17:16:30.840Z,48.35
2023-02-11T17:18:58.762Z,46.78
2023-02-11T17:21:29.506Z,43.38
2023-02-11T17:23:59.471Z,46.30
2023-02-11T17:26:27.457Z,46.78
2023-02-11T17:28:55.372Z,47.15
2023-02-11T17:31:23.421Z,47.95
2023-02-11T17:33:51.332Z,49.22
2023-02-11T17:36:19.508Z,45.05
2023-02-11T17:38:47.420Z,46.35
2023-02-11T17:41:16.725Z,45.92
2023-02-11T17:43:44.800Z,50.78
2023-02-11T17:46:13.079Z,44.67
2023-02-11T17:48:41.045Z,44.70
2023-02-11T17:51:22.435Z,44.22
2023-02-11T17:53:50.352Z,44.38
2023-02-11T17:56:19.724Z,44.88
2023-02-11T17:58:48.384Z,48.42
2023-02-11T18:01:16.271Z,44.17
2023-02-11T18:03:44.171Z,46.63
2023-02-11T18:06:12.943Z,46.85
2023-02-11T18:08:43.125Z,47.55
2023-02-11T18:11:11.683Z,43.03
2023-02-11T18:13:40.898Z,47.42
2023-02-11T18:16:09.425Z,46.22
2023-02-11T18:18:37.356Z,48.72
2023-02-11T18:21:08.507Z,47.38
2023-02-11T18:23:36.508Z,47.05
2023-02-11T18:26:08.201Z,44.75
2023-02-11T18:28:36.277Z,45.85
2023-02-11T18:31:06.481Z,47.85
2023-02-11T18:33:34.819Z,48.97
2023-02-11T18:36:06.300Z,41.22
2023-02-11T18:38:34.182Z,43.33
2023-02-11T18:41:02.146Z,46.22
2023-02-11T18:43:31.625Z,43.80
2023-02-11T18:45:59.708Z,45.00
2023-02-11T18:48:29.184Z,45.00
2023-02-11T18:50:57.260Z,44.88
2023-02-11T18:53:25.202Z,46.65
2023-02-11T18:55:54.008Z,44.75
2023-02-11T18:58:22.234Z,45.55
2023-02-11T19:00:50.644Z,46.28
2023-02-11T19:03:18.505Z,45.25
2023-02-11T19:05:50.074Z,45.33
2023-02-11T19:08:18.493Z,45.10
2023-02-11T19:10:48.069Z,43.22
2023-02-11T19:13:16.135Z,44.88
2023-02-11T19:15:44.892Z,44.53
2023-02-11T19:18:18.180Z,42.03
2023-02-11T19:20:47.560Z,43.25
2023-02-11T19:23:15.472Z,42.85
2023-02-11T19:25:53.293Z,43.22
2023-02-11T19:28:21.408Z,43.80
2023-02-11T19:30:49.457Z,43.83
2023-02-11T19:33:17.364Z,44.65
2023-02-11T19:35:45.472Z,43.42
2023-02-11T19:38:15.836Z,44.00
2023-02-11T19:40:43.797Z,42.35
2023-02-11T19:43:11.667Z,40.47
2023-02-11T19:45:39.616Z,41.65
2023-02-11T19:48:07.540Z,45.85
2023-02-11T19:50:35.457Z,42.28
2023-02-11T19:53:03.483Z,45.40
2023-02-11T19:55:35.512Z,48.28
2023-02-11T19:58:03.409Z,46.97
2023-02-11T20:00:31.587Z,46.67
2023-02-11T20:02:59.601Z,45.83
2023-02-11T20:05:27.553Z,43.45
2023-02-11T20:07:55.420Z,43.97
2023-02-11T20:10:24.732Z,43.15
2023-02-11T20:12:54.186Z,44.38
2023-02-11T20:15:22.112Z,42.00
2023-02-11T20:17:50.000Z,45.65
2023-02-11T20:20:18.544Z,43.42
2023-02-11T20:22:46.428Z,45.75
2023-02-11T20:25:14.355Z,45.00
2023-02-11T20:27:42.192Z,44.47
2023-02-11T20:30:13.427Z,47.72
2023-02-11T20:32:41.413Z,45.88
2023-02-11T20:35:10.213Z,43.10
2023-02-11T20:37:38.784Z,45.88
2023-02-11T20:40:08.003Z,41.88
2023-02-11T20:42:35.940Z,45.40
2023-02-11T20:45:03.892Z,46.05
2023-02-11T20:47:33.225Z,45.05
2023-02-11T20:50:01.176Z,44.05
2023-02-11T20:52:29.356Z,40.25
2023-02-11T20:54:57.196Z,45.38
2023-02-11T20:57:25.201Z,42.50
2023-02-11T20:59:53.110Z,45.63
2023-02-11T21:02:23.517Z,40.50
2023-02-11T21:04:53.972Z,41.63
2023-02-11T21:07:21.902Z,44.55
2023-02-11T21:09:49.919Z,44.78
2023-02-11T21:12:17.819Z,43.90
2023-02-11T21:14:45.899Z,39.83
2023-02-11T21:17:14.085Z,39.78
2023-02-11T21:19:43.320Z,47.28
2023-02-11T21:22:12.615Z,42.60
2023-02-11T21:24:40.545Z,39.80
2023-02-11T21:27:08.524Z,43.63
2023-02-11T21:29:45.749Z,41.92
2023-02-11T21:32:20.793Z,43.63
2023-02-11T21:34:48.764Z,40.80
2023-02-11T21:37:18.006Z,42.97
2023-02-11T21:39:45.899Z,43.08
2023-02-11T21:42:13.779Z,42.22
2023-02-11T21:44:41.746Z,42.50
2023-02-11T21:47:09.664Z,42.70
2023-02-11T21:49:37.621Z,43.17
2023-02-11T21:52:05.916Z,50.22
2023-02-11T21:54:35.193Z,46.50
2023-02-11T21:57:04.011Z,47.20
2023-02-11T21:59:32.767Z,46.78
2023-02-11T22:02:00.627Z,45.83
2023-02-11T22:04:28.669Z,40.30
2023-02-11T22:06:56.598Z,42.67
2023-02-11T22:09:24.758Z,38.10
2023-02-11T22:11:54.012Z,37.92
2023-02-11T22:14:22.063Z,29.95
2023-02-11T22:16:50.084Z,30.70
2023-02-11T22:19:18.870Z,34.33
2023-02-11T22:21:46.743Z,28.58
2023-02-11T22:24:14.668Z,24.20
2023-02-11T22:26:42.614Z,25.33
2023-02-11T22:29:12.352Z,24.48
2023-02-11T22:31:40.382Z,26.60
2023-02-11T22:34:08.668Z,23.83
2023-02-11T22:36:39.117Z,25.52
2023-02-11T22:39:09.093Z,24.83
2023-02-11T22:41:38.336Z,27.00
2023-02-11T22:44:06.338Z,24.42
2023-02-11T22:46:36.008Z,25.17
2023-02-11T22:49:04.230Z,25.40
2023-02-11T22:51:32.669Z,24.77
2023-02-11T22:54:02.403Z,27.52
2023-02-11T22:56:31.964Z,27.42
2023-02-11T22:59:00.339Z,24.15
2023-02-11T23:01:28.779Z,31.67
2023-02-11T23:03:59.770Z,32.45
2023-02-11T23:06:27.846Z,28.75
2023-02-11T23:08:56.282Z,30.45
2023-02-11T23:11:27.120Z,28.40
2023-02-11T23:13:55.911Z,27.17
2023-02-11T23:16:25.879Z,24.38
2023-02-11T23:18:54.237Z,23.88
2023-02-11T23:21:25.158Z,24.50
2023-02-11T23:23:55.890Z,25.13
2023-02-11T23:26:24.001Z,22.27
2023-02-11T23:28:52.032Z,20.25
2023-02-11T23:31:22.037Z,19.13
2023-02-11T23:33:50.843Z,20.55
2023-02-11T23:36:19.791Z,20.23
2023-02-11T23:38:49.600Z,20.23
2023-02-11T23:41:18.065Z,18.85
2023-02-11T23:43:49.274Z,18.15
2023-02-11T23:46:17.324Z,20.02
2023-02-11T23:48:45.327Z,17.30
2023-02-11T23:51:13.548Z,20.02
2023-02-11T23:53:41.655Z,17.80
2023-02-11T23:56:14.162Z,16.27
2023-02-11T23:58:42.325Z,15.07
